Time;durP1;ratioP1;P1;durP2;ratioP2;P2;SDS_P1;SDS_P2;PMS_P1;PMS_P2;Temp;Humidity;BMP_temperature;BMP_pressure;BME280_temperature;BME280_humidity;BME280_pressure;Samples;Min_cycle;Max_cycle;Signal;HPM_P1;HPM_P2
2023/01/15 00:00:13;;;;;;;1.50;0.80;;;8.60;99.90;;;;;;5084943;28;20404;-56
2023/01/15 00:02:39;;;;;;;1.48;1.10;;;8.60;99.90;;;;;;5073739;28;20041;-57
2023/01/15 00:05:05;;;;;;;1.85;0.88;;;8.60;99.90;;;;;;5085164;28;20024;-57
2023/01/15 00:07:31;;;;;;;1.30;0.80;;;8.70;99.90;;;;;;5096671;28;20209;-59
2023/01/15 00:09:56;;;;;;;0.88;0.70;;;8.70;99.90;;;;;;5089732;28;20127;-57
2023/01/15 00:12:22;;;;;;;2.35;0.77;;;8.70;99.90;;;;;;5075578;28;20385;-58
2023/01/15 00:14:47;;;;;;;1.40;0.80;;;8.70;99.90;;;;;;5103367;28;20408;-57
2023/01/15 00:17:13;;;;;;;2.22;0.70;;;8.80;99.90;;;;;;5084146;28;20085;-58
2023/01/15 00:19:39;;;;;;;1.67;0.70;;;8.80;99.90;;;;;;5099258;28;20031;-57
2023/01/15 00:22:04;;;;;;;1.60;1.00;;;8.80;99.90;;;;;;5084326;28;20036;-55
2023/01/15 00:29:58;;;;;;;1.48;0.85;;;8.80;99.90;;;;;;5078037;28;20557;-56
2023/01/15 00:32:26;;;;;;;1.30;0.70;;;8.80;99.90;;;;;;5077463;28;20024;-58
2023/01/15 00:34:52;;;;;;;1.05;0.80;;;8.80;99.90;;;;;;5089635;28;20554;-58
2023/01/15 00:37:17;;;;;;;1.27;0.50;;;8.80;99.90;;;;;;5090173;28;20044;-56
2023/01/15 00:39:43;;;;;;;4.47;0.95;;;8.80;99.90;;;;;;5095789;28;20808;-58
2023/01/15 00:42:10;;;;;;;0.95;0.77;;;8.80;99.90;;;;;;5083560;28;20024;-59
2023/01/15 00:44:36;;;;;;;1.40;0.68;;;8.80;99.90;;;;;;5085094;28;20419;-59
2023/01/15 00:47:02;;;;;;;0.95;0.77;;;8.80;99.90;;;;;;5092367;28;20216;-57
2023/01/15 00:49:28;;;;;;;3.15;0.80;;;8.80;99.90;;;;;;5091319;28;20115;-58
2023/01/15 00:51:53;;;;;;;0.60;0.60;;;8.80;99.90;;;;;;5104932;28;20491;-58
2023/01/15 00:54:19;;;;;;;1.13;0.65;;;8.80;99.90;;;;;;5081030;28;20066;-57
2023/01/15 00:56:44;;;;;;;0.70;0.47;;;8.80;99.90;;;;;;5099855;28;20047;-57
2023/01/15 00:59:10;;;;;;;1.38;0.75;;;8.80;99.90;;;;;;5098270;28;20397;-57
2023/01/15 01:01:36;;;;;;;1.17;0.70;;;8.80;99.90;;;;;;5095986;28;20059;-58
2023/01/15 01:04:02;;;;;;;1.15;0.63;;;8.80;99.90;;;;;;5078472;28;20103;-57
2023/01/15 01:06:27;;;;;;;1.05;0.60;;;8.80;99.90;;;;;;5096598;28;20113;-57
2023/01/15 01:08:54;;;;;;;1.27;0.60;;;8.80;99.90;;;;;;5089753;28;20032;-57
2023/01/15 01:11:25;;;;;;;1.40;0.82;;;8.90;99.90;;;;;;5097185;28;20411;-58
2023/01/15 01:13:53;;;;;;;1.38;0.60;;;8.90;99.90;;;;;;5086339;28;20549;-57
2023/01/15 01:16:36;;;;;;;0.52;0.50;;;8.90;99.90;;;;;;5107787;28;20074;-58
2023/01/15 01:19:04;;;;;;;0.90;0.65;;;8.90;99.90;;;;;;5110193;28;20104;-57
2023/01/15 01:21:30;;;;;;;1.67;0.60;;;8.90;99.90;;;;;;5093136;28;20373;-59
2023/01/15 01:23:59;;;;;;;0.70;0.55;;;9.00;99.90;;;;;;5109729;28;20348;-57
2023/01/15 01:26:26;;;;;;;1.95;0.70;;;9.00;99.90;;;;;;5094064;28;20036;-56
2023/01/15 01:28:52;;;;;;;0.88;0.40;;;9.00;99.90;;;;;;5093388;28;20331;-57
2023/01/15 01:31:19;;;;;;;0.80;0.57;;;8.90;99.90;;;;;;5087354;28;20028;-57
2023/01/15 01:33:48;;;;;;;0.75;0.63;;;8.90;99.90;;;;;;5089426;28;20031;-57
2023/01/15 01:36:14;;;;;;;0.60;0.50;;;8.90;99.90;;;;;;5107222;28;20468;-56
2023/01/15 01:38:39;;;;;;;1.10;0.45;;;8.90;99.90;;;;;;5109499;28;20028;-57
2023/01/15 01:41:05;;;;;;;0.65;0.45;;;8.90;99.90;;;;;;5091074;28;20024;-56
2023/01/15 01:43:48;;;;;;;0.88;0.50;;;8.90;99.90;;;;;;5109474;28;20157;-56
2023/01/15 01:46:14;;;;;;;1.52;0.98;;;8.90;99.90;;;;;;5075690;28;20024;-57
2023/01/15 01:48:39;;;;;;;0.50;0.40;;;8.90;99.90;;;;;;5109428;28;20399;-57
2023/01/15 01:51:05;;;;;;;1.00;0.60;;;9.00;99.90;;;;;;5090748;28;20053;-57
2023/01/15 01:53:31;;;;;;;1.13;0.82;;;9.00;99.90;;;;;;5108994;28;20372;-55
2023/01/15 01:55:57;;;;;;;1.23;0.50;;;9.00;99.90;;;;;;5089402;28;20061;-55
2023/01/15 01:58:28;;;;;;;0.95;0.43;;;9.10;99.90;;;;;;5109393;28;20035;-56
2023/01/15 02:00:54;;;;;;;0.40;0.40;;;9.10;99.90;;;;;;5069768;28;20028;-54
2023/01/15 02:03:25;;;;;;;0.60;0.50;;;9.10;99.90;;;;;;5109211;28;20470;-57
2023/01/15 02:05:54;;;;;;;0.52;0.40;;;9.20;99.90;;;;;;5086056;28;20016;-57
2023/01/15 02:11:42;;;;;;;1.02;0.50;;;9.20;99.90;;;;;;5092423;28;20287;-57
2023/01/15 02:14:17;;;;;;;0.50;0.47;;;9.20;99.90;;;;;;5089057;28;20339;-57
2023/01/15 02:17:06;;;;;;;0.65;0.40;;;9.20;99.90;;;;;;5079423;28;20445;-54
2023/01/15 02:19:48;;;;;;;0.70;0.43;;;9.20;99.90;;;;;;5068248;28;20059;-57
2023/01/15 02:22:34;;;;;;;0.40;0.35;;;9.20;99.90;;;;;;5083749;28;20032;-58
2023/01/15 02:25:43;;;;;;;0.60;0.50;;;9.20;99.90;;;;;;5073526;28;20020;-56
2023/01/15 02:28:17;;;;;;;1.55;0.50;;;9.20;99.90;;;;;;5067373;28;20275;-57
2023/01/15 02:30:51;;;;;;;0.38;0.38;;;9.20;99.90;;;;;;5085269;28;20028;-55
2023/01/15 02:33:30;;;;;;;1.45;0.52;;;9.20;99.90;;;;;;5068069;28;20130;-54
2023/01/15 02:35:59;;;;;;;0.80;0.45;;;9.20;99.90;;;;;;5087973;28;20023;-58
2023/01/15 02:38:32;;;;;;;1.27;0.50;;;9.20;99.90;;;;;;5088205;28;20024;-57
2023/01/15 02:41:01;;;;;;;0.65;0.40;;;9.20;99.90;;;;;;5090100;28;20016;-58
2023/01/15 02:43:31;;;;;;;2.47;0.45;;;9.10;99.90;;;;;;5088512;28;20115;-56
2023/01/15 02:46:00;;;;;;;1.27;0.50;;;9.10;99.90;;;;;;5086217;28;20120;-58
2023/01/15 02:48:28;;;;;;;0.85;0.60;;;9.10;99.90;;;;;;5108376;28;20034;-56
2023/01/15 02:51:06;;;;;;;0.30;0.30;;;9.10;99.90;;;;;;5097544;28;20483;-58
2023/01/15 02:53:34;;;;;;;0.63;0.30;;;9.10;99.90;;;;;;5070432;28;20128;-57
2023/01/15 02:56:06;;;;;;;1.30;0.82;;;9.10;99.90;;;;;;5086543;28;20322;-57
2023/01/15 02:58:36;;;;;;;1.67;0.40;;;9.10;99.90;;;;;;5067890;28;20056;-58
2023/01/15 03:01:34;;;;;;;0.63;0.50;;;9.10;99.90;;;;;;5092850;28;20370;-57
2023/01/15 03:04:09;;;;;;;1.05;0.38;;;9.10;99.90;;;;;;5050401;28;20039;-57
2023/01/15 03:06:41;;;;;;;0.90;0.50;;;9.10;99.90;;;;;;5077615;28;20484;-55
2023/01/15 03:09:07;;;;;;;1.58;0.50;;;9.00;99.90;;;;;;5071888;28;20057;-54
2023/01/15 03:11:40;;;;;;;1.27;0.45;;;9.00;99.90;;;;;;5092773;28;20032;-55
2023/01/15 03:14:20;;;;;;;0.68;0.40;;;9.00;99.90;;;;;;5071666;28;20070;-57
2023/01/15 03:16:55;;;;;;;0.40;0.40;;;9.00;99.90;;;;;;5088121;28;20062;-57
2023/01/15 03:19:26;;;;;;;1.30;0.68;;;9.00;99.90;;;;;;5112004;28;20035;-55
2023/01/15 03:22:00;;;;;;;0.77;0.50;;;9.00;99.90;;;;;;5088780;28;20063;-57
2023/01/15 03:27:49;;;;;;;1.20;0.60;;;9.00;99.90;;;;;;5094529;28;20053;-57
2023/01/15 03:30:18;;;;;;;0.70;0.60;;;9.00;99.90;;;;;;5112204;27;20223;-56
2023/01/15 03:32:43;;;;;;;0.93;0.40;;;9.00;99.90;;;;;;5088543;28;20035;-57
2023/01/15 03:35:37;;;;;;;0.90;0.40;;;9.00;99.90;;;;;;5110987;28;20031;-57
2023/01/15 03:38:03;;;;;;;0.85;0.30;;;9.00;99.90;;;;;;5071347;28;20040;-55
2023/01/15 03:40:30;;;;;;;0.47;0.22;;;9.00;99.90;;;;;;5108311;28;20027;-57
2023/01/15 03:45:53;;;;;;;1.08;0.40;;;9.10;99.90;;;;;;5091059;28;20535;-56
2023/01/15 03:48:29;;;;;;;0.93;0.43;;;9.00;99.90;;;;;;5071055;28;20044;-54
2023/01/15 03:51:38;;;;;;;2.40;0.53;;;9.10;99.90;;;;;;5101123;28;20077;-54
2023/01/15 03:54:09;;;;;;;0.60;0.40;;;9.00;99.90;;;;;;5069733;28;20036;-56
2023/01/15 03:56:54;;;;;;;0.63;0.40;;;9.00;99.90;;;;;;5086500;28;20232;-54
2023/01/15 03:59:45;;;;;;;1.15;0.60;;;9.00;99.90;;;;;;5071079;28;20447;-56
2023/01/15 04:02:13;;;;;;;2.00;0.80;;;9.00;99.90;;;;;;5070638;28;20052;-55
2023/01/15 04:04:39;;;;;;;1.27;0.50;;;9.00;99.90;;;;;;5107331;28;20043;-57
2023/01/15 04:07:05;;;;;;;4.88;0.82;;;9.00;99.90;;;;;;5087701;28;20201;-51
2023/01/15 04:09:31;;;;;;;5.68;1.00;;;9.00;99.90;;;;;;5110329;28;20521;-58
2023/01/15 04:12:00;;;;;;;4.45;1.50;;;9.10;99.90;;;;;;5070682;28;20117;-54
2023/01/15 04:14:28;;;;;;;2.95;1.00;;;9.10;99.90;;;;;;5109955;28;20043;-58
2023/01/15 04:16:54;;;;;;;3.47;1.20;;;9.10;99.90;;;;;;5089121;28;20032;-59
2023/01/15 04:19:19;;;;;;;2.80;1.58;;;9.10;99.90;;;;;;5110504;28;20035;-59
2023/01/15 04:21:45;;;;;;;2.67;0.90;;;9.10;99.90;;;;;;5089342;28;20128;-57
2023/01/15 04:24:10;;;;;;;1.92;0.85;;;9.10;99.90;;;;;;5110204;28;20055;-58
2023/01/15 04:26:36;;;;;;;1.42;0.75;;;9.10;99.90;;;;;;5087958;28;20048;-59
2023/01/15 04:29:01;;;;;;;1.63;0.77;;;9.10;99.90;;;;;;5110310;28;20499;-59
2023/01/15 04:31:27;;;;;;;1.88;0.73;;;9.00;99.90;;;;;;5089121;28;20603;-55
2023/01/15 04:33:52;;;;;;;2.28;0.82;;;9.00;99.90;;;;;;5110020;28;20035;-57
2023/01/15 04:36:18;;;;;;;2.35;1.05;;;9.00;99.90;;;;;;5089131;28;20104;-57
2023/01/15 04:38:43;;;;;;;4.35;1.10;;;9.00;99.90;;;;;;5109903;28;20047;-58
2023/01/15 04:44:05;;;;;;;4.72;0.75;;;9.00;99.90;;;;;;5070149;28;20450;-59
2023/01/15 04:46:32;;;;;;;0.88;0.63;;;9.00;99.90;;;;;;5084812;28;20042;-59
2023/01/15 04:48:58;;;;;;;1.00;0.30;;;9.00;99.90;;;;;;5109957;28;20032;-57
2023/01/15 04:51:23;;;;;;;0.40;0.40;;;8.90;99.90;;;;;;5088807;28;20035;-59
2023/01/15 04:53:49;;;;;;;3.53;0.40;;;8.80;99.90;;;;;;5109307;28;20043;-58
2023/01/15 04:56:15;;;;;;;0.38;0.22;;;8.60;99.90;;;;;;5088690;28;20024;-58
2023/01/15 04:58:40;;;;;;;0.10;0.10;;;8.50;99.90;;;;;;5109573;28;20177;-58
2023/01/15 05:01:11;;;;;;;0.20;0.15;;;8.30;99.90;;;;;;5088642;28;20610;-59
2023/01/15 05:03:37;;;;;;;1.88;0.35;;;8.10;99.90;;;;;;5095000;28;20392;-58
2023/01/15 05:06:02;;;;;;;0.85;0.20;;;8.00;99.90;;;;;;5106336;28;20030;-58
2023/01/15 05:08:28;;;;;;;0.35;0.32;;;7.90;99.90;;;;;;5088555;28;20036;-60
2023/01/15 05:10:53;;;;;;;0.52;0.30;;;7.80;99.90;;;;;;5109439;28;20038;-58
2023/01/15 05:13:19;;;;;;;0.43;0.20;;;7.60;99.90;;;;;;5088526;28;20032;-58
2023/01/15 05:15:45;;;;;;;1.17;0.35;;;7.50;99.90;;;;;;5109489;28;20519;-59
2023/01/15 05:18:13;;;;;;;0.57;0.20;;;7.40;99.90;;;;;;5088127;28;20032;-57
2023/01/15 05:20:46;;;;;;;1.05;0.22;;;7.30;99.90;;;;;;5109760;28;20497;-58
2023/01/15 05:23:12;;;;;;;0.70;0.25;;;7.30;99.90;;;;;;5073312;28;20039;-58
2023/01/15 05:25:38;;;;;;;1.63;0.25;;;7.20;99.90;;;;;;5088566;28;20104;-57
2023/01/15 05:28:04;;;;;;;0.25;0.20;;;7.20;99.90;;;;;;5084841;28;20514;-58
2023/01/15 05:30:29;;;;;;;0.35;0.20;;;7.10;99.90;;;;;;5089317;28;20430;-57
2023/01/15 05:32:54;;;;;;;0.55;0.28;;;7.10;99.90;;;;;;5089293;28;20067;-57
2023/01/15 05:35:20;;;;;;;1.30;0.35;;;7.00;99.90;;;;;;5087554;28;20045;-58
2023/01/15 05:37:45;;;;;;;0.20;0.20;;;7.00;99.90;;;;;;5108730;28;20270;-59
2023/01/15 05:40:11;;;;;;;0.43;0.20;;;6.90;99.90;;;;;;5087942;28;20035;-58
2023/01/15 05:42:37;;;;;;;0.40;0.40;;;6.90;99.90;;;;;;5089278;28;20113;-58
2023/01/15 05:45:03;;;;;;;0.40;0.40;;;6.90;99.90;;;;;;5090080;28;20024;-58
2023/01/15 05:47:28;;;;;;;0.65;0.30;;;6.90;99.90;;;;;;5108761;28;20031;-58
2023/01/15 05:49:54;;;;;;;1.05;0.40;;;6.90;99.90;;;;;;5087692;28;20051;-58
2023/01/15 05:52:19;;;;;;;0.70;0.30;;;6.90;99.90;;;;;;5081899;28;20024;-56
2023/01/15 05:54:45;;;;;;;0.70;0.10;;;6.80;99.90;;;;;;5079720;28;20028;-57
2023/01/15 05:57:11;;;;;;;0.82;0.20;;;6.80;99.90;;;;;;5088199;28;20753;-58
2023/01/15 05:59:38;;;;;;;0.15;0.10;;;6.80;99.90;;;;;;5101999;28;20032;-58
2023/01/15 06:02:03;;;;;;;0.98;0.30;;;6.80;99.90;;;;;;5075831;28;20396;-59
2023/01/15 06:04:29;;;;;;;1.85;0.22;;;6.80;99.90;;;;;;5104883;28;20039;-54
2023/01/15 06:06:55;;;;;;;1.25;0.40;;;6.80;99.90;;;;;;5067403;28;20103;-58
2023/01/15 06:09:22;;;;;;;0.68;0.20;;;6.80;99.90;;;;;;5106261;28;20066;-58
2023/01/15 06:11:48;;;;;;;0.17;0.13;;;6.70;99.90;;;;;;5073756;28;20035;-58
2023/01/15 06:14:14;;;;;;;0.43;0.22;;;6.70;99.90;;;;;;5087708;28;20036;-56
2023/01/15 06:16:40;;;;;;;1.05;0.20;;;6.70;99.90;;;;;;5083735;28;20046;-57
2023/01/15 06:19:06;;;;;;;0.82;0.35;;;6.70;99.90;;;;;;5102610;28;20054;-58
2023/01/15 06:21:33;;;;;;;0.55;0.30;;;6.70;99.90;;;;;;5079819;28;20504;-58
2023/01/15 06:23:59;;;;;;;1.85;0.20;;;6.70;99.90;;;;;;5076898;28;20657;-59
2023/01/15 06:26:25;;;;;;;0.85;0.30;;;6.70;99.90;;;;;;5074015;28;20056;-57
2023/01/15 06:28:50;;;;;;;1.48;0.30;;;6.70;99.90;;;;;;5104507;28;20089;-59
2023/01/15 06:31:18;;;;;;;1.35;0.20;;;6.70;99.90;;;;;;5091814;28;20055;-58
2023/01/15 06:33:44;;;;;;;1.15;0.30;;;6.70;99.90;;;;;;5089823;28;20677;-58
2023/01/15 06:36:13;;;;;;;0.47;0.20;;;6.70;99.90;;;;;;5090656;28;20035;-58
2023/01/15 06:38:39;;;;;;;0.70;0.50;;;6.70;99.90;;;;;;5085161;28;20055;-58
2023/01/15 06:47:19;;;;;;;0.73;0.30;;;6.70;99.90;;;;;;5098744;28;20109;-59
2023/01/15 06:47:23;;;;;;;0.60;0.40;;;6.70;99.90;;;;;;5077855;28;20502;-60
2023/01/15 06:49:31;;;;;;;1.27;0.40;;;6.70;99.90;;;;;;5066507;28;20416;-59
2023/01/15 06:51:57;;;;;;;2.45;0.50;;;6.70;99.90;;;;;;5088506;28;20096;-59
2023/01/15 06:54:22;;;;;;;1.05;0.50;;;6.70;99.90;;;;;;5101093;28;20301;-59
2023/01/15 06:56:48;;;;;;;1.95;0.52;;;6.70;99.90;;;;;;5077039;28;20112;-59
2023/01/15 06:59:13;;;;;;;2.53;0.45;;;6.70;99.90;;;;;;5105686;28;20059;-59
2023/01/15 07:01:39;;;;;;;1.13;0.40;;;6.70;99.90;;;;;;5092812;28;20037;-60
2023/01/15 07:04:04;;;;;;;3.55;0.40;;;6.70;99.90;;;;;;5087747;28;20107;-59
2023/01/15 07:06:30;;;;;;;1.33;0.43;;;6.70;99.90;;;;;;5103624;28;20043;-59
2023/01/15 07:08:56;;;;;;;1.20;0.40;;;6.70;99.90;;;;;;5070749;28;20040;-59
2023/01/15 07:11:22;;;;;;;1.77;0.85;;;6.70;99.90;;;;;;5093780;28;20036;-58
2023/01/15 07:13:48;;;;;;;1.48;0.25;;;6.70;99.90;;;;;;5087193;28;20027;-57
2023/01/15 07:16:26;;;;;;;1.75;0.50;;;6.70;99.90;;;;;;5100211;28;20115;-58
2023/01/15 07:18:53;;;;;;;0.65;0.45;;;6.60;99.90;;;;;;5067985;28;20029;-59
2023/01/15 07:21:19;;;;;;;1.35;0.38;;;6.70;99.90;;;;;;5108256;28;20462;-58
2023/01/15 07:23:44;;;;;;;0.45;0.40;;;6.60;99.90;;;;;;5071109;28;20060;-59
2023/01/15 07:26:10;;;;;;;1.48;0.50;;;6.60;99.90;;;;;;5081096;28;20613;-59
2023/01/15 07:28:35;;;;;;;0.40;0.38;;;6.60;99.90;;;;;;5071574;28;20087;-59
2023/01/15 07:31:01;;;;;;;0.30;0.30;;;6.60;99.90;;;;;;5090847;28;20032;-58
2023/01/15 07:33:26;;;;;;;1.70;0.40;;;6.60;99.90;;;;;;5081720;28;20084;-56
2023/01/15 07:35:52;;;;;;;0.30;0.30;;;6.60;99.90;;;;;;5083721;28;20028;-56
2023/01/15 07:38:17;;;;;;;1.00;0.40;;;6.50;99.90;;;;;;5103342;28;20024;-55
2023/01/15 07:40:43;;;;;;;1.80;0.30;;;6.50;99.90;;;;;;5108386;28;20032;-57
2023/01/15 07:51:22;;;;;;;0.47;0.47;;;6.50;99.90;;;;;;5077974;28;20169;-56
2023/01/15 07:53:47;;;;;;;1.38;0.77;;;6.50;99.90;;;;;;5111029;28;20125;-57
2023/01/15 07:56:13;;;;;;;1.23;0.60;;;6.50;99.90;;;;;;5093096;28;20035;-56
2023/01/15 07:58:38;;;;;;;2.38;0.63;;;6.40;99.90;;;;;;5111086;28;20047;-57
2023/01/15 08:01:04;;;;;;;1.25;0.85;;;6.40;99.90;;;;;;5091873;28;20063;-56
2023/01/15 08:03:29;;;;;;;1.85;0.73;;;6.40;99.90;;;;;;5111032;28;20099;-57
2023/01/15 08:05:55;;;;;;;2.10;1.13;;;6.40;99.90;;;;;;5080731;28;20040;-57
2023/01/15 08:08:21;;;;;;;1.77;0.88;;;6.40;99.90;;;;;;5088653;28;20034;-56
2023/01/15 08:16:14;;;;;;;2.17;1.00;;;6.30;99.90;;;;;;5087360;28;20430;-59
2023/01/15 08:18:40;;;;;;;1.45;1.02;;;6.40;99.90;;;;;;5109728;28;20118;-60
2023/01/15 08:21:11;;;;;;;3.05;0.50;;;6.30;99.90;;;;;;5088695;28;20032;-60
2023/01/15 08:23:37;;;;;;;1.90;0.40;;;6.40;99.90;;;;;;5069170;28;20033;-58
2023/01/15 08:26:02;;;;;;;2.55;1.17;;;6.40;99.90;;;;;;5075821;28;20452;-58
2023/01/15 08:28:28;;;;;;;1.80;0.60;;;6.40;99.90;;;;;;5108626;28;20043;-58
2023/01/15 08:30:53;;;;;;;3.05;0.73;;;6.40;99.90;;;;;;5088723;28;20036;-58
2023/01/15 08:33:18;;;;;;;2.15;0.60;;;6.40;99.90;;;;;;5091062;28;20507;-58
2023/01/15 08:35:44;;;;;;;0.68;0.52;;;6.40;99.90;;;;;;5091136;28;20059;-61
2023/01/15 08:38:10;;;;;;;0.35;0.30;;;6.40;99.90;;;;;;5110201;28;20480;-58
2023/01/15 08:40:57;;;;;;;0.70;0.70;;;6.40;99.90;;;;;;5088654;28;20484;-60
2023/01/15 08:43:21;;;;;;;1.35;0.60;;;6.40;99.90;;;;;;5069469;28;20081;-58
2023/01/15 08:46:21;;;;;;;0.65;0.52;;;6.40;99.90;;;;;;5093917;28;20393;-58
2023/01/15 08:48:47;;;;;;;1.77;0.32;;;6.50;99.90;;;;;;5068655;28;20033;-60
2023/01/15 08:51:13;;;;;;;1.70;0.85;;;6.50;99.90;;;;;;5108674;28;20028;-59
2023/01/15 08:53:38;;;;;;;2.33;0.50;;;6.40;99.90;;;;;;5087876;28;20035;-59
2023/01/15 08:56:11;;;;;;;0.73;0.70;;;6.40;99.90;;;;;;5109078;28;20027;-58
2023/01/15 08:58:36;;;;;;;2.55;0.50;;;6.40;99.90;;;;;;5084908;28;20457;-59
2023/01/15 09:01:07;;;;;;;0.75;0.57;;;6.50;99.90;;;;;;5109212;28;20035;-58
2023/01/15 09:03:33;;;;;;;5.05;0.73;;;6.50;99.90;;;;;;5086848;28;20024;-58
2023/01/15 09:05:59;;;;;;;3.08;1.02;;;6.50;99.90;;;;;;5102452;28;20042;-58
2023/01/15 09:08:25;;;;;;;1.08;0.60;;;6.60;99.90;;;;;;5086744;28;20035;-59
2023/01/15 09:10:55;;;;;;;1.25;0.63;;;6.60;99.90;;;;;;5108809;28;20038;-60
2023/01/15 09:13:21;;;;;;;1.02;0.60;;;6.60;99.90;;;;;;5082501;28;20403;-59
2023/01/15 09:15:46;;;;;;;0.93;0.55;;;6.70;99.90;;;;;;5108767;28;20024;-60
2023/01/15 09:18:14;;;;;;;1.85;0.68;;;6.80;99.90;;;;;;5087784;28;20028;-58
2023/01/15 09:20:39;;;;;;;1.15;0.40;;;6.80;99.90;;;;;;5108981;28;20090;-56
2023/01/15 09:23:05;;;;;;;3.25;0.50;;;6.80;99.90;;;;;;5087477;28;20035;-58
2023/01/15 09:25:30;;;;;;;2.33;0.63;;;6.80;99.90;;;;;;5108483;28;20027;-58
2023/01/15 09:27:55;;;;;;;0.73;0.55;;;6.90;99.90;;;;;;5094580;28;20035;-58
2023/01/15 09:30:22;;;;;;;1.58;0.75;;;6.90;99.90;;;;;;5097190;28;20036;-58
2023/01/15 09:32:47;;;;;;;2.25;0.70;;;6.90;99.90;;;;;;5106405;28;20574;-57
2023/01/15 09:35:13;;;;;;;1.65;1.02;;;6.90;99.90;;;;;;5089025;28;20055;-58
2023/01/15 09:37:39;;;;;;;1.73;0.60;;;7.00;99.90;;;;;;5106422;28;20118;-57
2023/01/15 09:40:08;;;;;;;3.17;0.75;;;7.00;99.90;;;;;;5089078;28;20020;-58
2023/01/15 09:42:48;;;;;;;1.20;0.70;;;7.00;99.90;;;;;;5097007;28;20073;-58
2023/01/15 09:45:22;;;;;;;0.98;0.80;;;7.10;99.90;;;;;;5068451;28;20032;-58
2023/01/15 09:48:14;;;;;;;0.90;0.50;;;7.10;99.90;;;;;;5087647;28;20043;-59
2023/01/15 09:51:01;;;;;;;0.90;0.50;;;7.20;99.90;;;;;;5068346;28;20130;-58
2023/01/15 09:53:45;;;;;;;10.68;1.42;;;7.20;99.90;;;;;;5082677;28;20059;-58
2023/01/15 09:56:19;;;;;;;2.58;1.20;;;7.20;99.90;;;;;;5108084;28;20043;-59
2023/01/15 09:58:45;;;;;;;2.97;1.23;;;7.20;99.90;;;;;;5084842;28;20028;-58
2023/01/15 10:01:23;;;;;;;6.10;2.30;;;7.30;99.90;;;;;;5107949;28;20024;-58
2023/01/15 10:03:55;;;;;;;3.72;1.35;;;7.20;99.90;;;;;;5085374;28;20048;-56
2023/01/15 10:06:27;;;;;;;2.35;1.17;;;7.40;99.90;;;;;;5061634;28;20384;-58
2023/01/15 10:09:02;;;;;;;2.05;1.25;;;7.40;99.90;;;;;;5086490;28;20184;-59
2023/01/15 10:14:37;;;;;;;2.35;1.20;;;7.50;99.90;;;;;;5088089;28;20085;-58
2023/01/15 10:17:09;;;;;;;2.47;1.45;;;7.60;99.90;;;;;;5075158;28;20035;-58
2023/01/15 10:19:34;;;;;;;3.30;1.58;;;7.60;99.90;;;;;;5108540;28;20032;-58
2023/01/15 10:22:20;;;;;;;3.28;1.75;;;7.70;99.90;;;;;;5090799;28;20026;-55
2023/01/15 10:24:55;;;;;;;2.60;1.08;;;7.80;99.90;;;;;;5108119;28;20057;-57
2023/01/15 10:27:31;;;;;;;4.30;2.22;;;7.80;99.90;;;;;;5079693;28;20510;-58
2023/01/15 10:30:13;;;;;;;1.30;1.15;;;7.90;99.90;;;;;;5087841;28;20089;-57
2023/01/15 10:32:52;;;;;;;9.00;3.13;;;7.90;99.90;;;;;;5084887;28;20031;-59
2023/01/15 10:35:36;;;;;;;77.28;34.97;;;8.00;99.90;;;;;;5083839;28;20030;-57
2023/01/15 10:38:24;;;;;;;21.90;10.95;;;8.00;99.90;;;;;;5086106;28;20044;-56
2023/01/15 10:41:00;;;;;;;12.80;6.22;;;8.00;99.90;;;;;;5107271;28;20031;-56
2023/01/15 10:43:58;;;;;;;13.55;5.55;;;8.00;99.90;;;;;;5109341;28;20020;-57
2023/01/15 10:46:27;;;;;;;15.45;5.22;;;8.10;99.90;;;;;;5077868;28;20055;-57
2023/01/15 10:49:05;;;;;;;13.30;6.05;;;8.10;99.90;;;;;;5109244;28;20387;-57
2023/01/15 10:51:40;;;;;;;10.38;4.78;;;8.10;99.90;;;;;;5079565;28;20150;-57
2023/01/15 10:54:23;;;;;;;13.05;6.15;;;8.10;99.90;;;;;;5109257;28;20035;-55
2023/01/15 10:57:11;;;;;;;45.42;32.78;;;8.20;99.90;;;;;;5084653;28;20048;-57
2023/01/15 10:59:56;;;;;;;34.63;18.67;;;8.20;99.90;;;;;;5088876;28;20371;-56
2023/01/15 11:02:42;;;;;;;44.40;23.33;;;8.20;99.90;;;;;;5080319;28;20032;-57
2023/01/15 11:05:16;;;;;;;17.48;11.63;;;8.40;99.90;;;;;;5074410;28;20030;-54
2023/01/15 11:07:44;;;;;;;13.38;8.98;;;8.50;99.90;;;;;;5107345;28;20039;-56
2023/01/15 11:10:14;;;;;;;10.15;5.93;;;8.50;99.90;;;;;;5088896;28;20055;-57
2023/01/15 11:21:12;;;;;;;101.97;52.47;;;8.30;99.90;;;;;;5072927;28;20054;-57
2023/01/15 11:23:38;;;;;;;72.63;41.92;;;8.30;99.80;;;;;;5109025;28;20122;-57
2023/01/15 11:26:04;;;;;;;371.50;206.68;;;8.20;99.80;;;;;;5090054;28;20070;-57
2023/01/15 11:28:38;;;;;;;490.75;288.15;;;8.20;99.90;;;;;;5100363;28;20515;-55
2023/01/15 11:31:05;;;;;;;304.33;185.18;;;8.30;99.90;;;;;;5075539;28;20207;-54
2023/01/15 11:33:31;;;;;;;241.82;142.77;;;8.30;99.90;;;;;;5112461;28;20395;-56
2023/01/15 11:35:59;;;;;;;234.70;143.35;;;8.30;99.90;;;;;;5092258;28;20643;-57
2023/01/15 11:38:30;;;;;;;121.05;75.40;;;8.30;99.60;;;;;;5112645;28;20114;-57
2023/01/15 11:41:01;;;;;;;170.68;103.10;;;8.40;99.90;;;;;;5073104;28;20055;-58
2023/01/15 11:52:07;;;;;;;47.50;26.45;;;8.40;99.50;;;;;;5091833;28;20062;-57
2023/01/15 11:54:37;;;;;;;21.25;13.52;;;8.40;99.40;;;;;;5091603;27;20028;-57
2023/01/15 11:57:03;;;;;;;14.73;9.13;;;8.40;99.20;;;;;;5091534;28;20031;-56
2023/01/15 11:59:29;;;;;;;12.00;7.43;;;8.40;98.10;;;;;;5092056;28;20028;-57
2023/01/15 12:02:19;;;;;;;7.60;5.15;;;8.40;98.90;;;;;;5109269;28;20038;-56
2023/01/15 12:04:55;;;;;;;4.55;3.03;;;8.40;98.50;;;;;;5075145;28;20055;-58
2023/01/15 12:07:23;;;;;;;2.67;1.67;;;8.40;96.80;;;;;;5090038;28;20031;-58
2023/01/15 12:10:03;;;;;;;1.55;1.42;;;8.40;96.40;;;;;;5111241;28;20621;-59
2023/01/15 12:12:51;;;;;;;160.93;78.53;;;8.30;98.70;;;;;;5084237;28;20024;-58
2023/01/15 12:15:29;;;;;;;53.85;27.73;;;8.30;99.00;;;;;;5069087;28;20500;-52
2023/01/15 12:18:03;;;;;;;27.10;15.77;;;8.30;99.00;;;;;;5069608;28;20467;-54
2023/01/15 12:21:10;;;;;;;16.25;9.80;;;8.40;98.30;;;;;;5089620;28;20043;-51
2023/01/15 12:23:53;;;;;;;9.10;4.68;;;8.30;94.60;;;;;;5110531;28;20027;-52
2023/01/15 12:26:32;;;;;;;5.45;2.22;;;8.30;95.70;;;;;;5092002;28;20039;-52
2023/01/15 12:29:21;;;;;;;2.40;1.77;;;8.30;94.80;;;;;;5080256;28;20043;-52
2023/01/15 12:32:00;;;;;;;2.88;1.30;;;8.20;96.00;;;;;;5083048;28;20071;-53
2023/01/15 12:34:49;;;;;;;1.92;0.88;;;8.20;96.80;;;;;;5083776;28;20025;-51
2023/01/15 12:37:47;;;;;;;2.72;1.17;;;8.30;94.60;;;;;;5084079;28;20119;-50
2023/01/15 12:40:23;;;;;;;1.52;0.80;;;8.30;96.30;;;;;;5074962;28;20130;-53
2023/01/15 12:45:41;;;;;;;1.25;1.05;;;8.30;94.80;;;;;;5077373;28;20055;-54
2023/01/15 12:48:27;;;;;;;2.28;0.90;;;8.20;94.50;;;;;;5065296;28;20029;-48
2023/01/15 12:51:00;;;;;;;3.33;1.10;;;8.20;93.40;;;;;;5075232;28;20028;-48
2023/01/15 12:53:30;;;;;;;1.55;0.90;;;8.10;95.40;;;;;;5085409;28;20085;-51
2023/01/15 12:56:19;;;;;;;2.05;0.90;;;8.10;94.60;;;;;;5094708;28;20024;-54
2023/01/15 12:59:00;;;;;;;1.15;0.82;;;8.10;93.00;;;;;;5093860;28;20051;-50
2023/01/15 13:02:03;;;;;;;2.10;0.88;;;8.10;92.10;;;;;;5077786;28;20043;-49
2023/01/15 13:04:50;;;;;;;0.77;0.60;;;8.00;93.10;;;;;;5077083;28;20028;-51
2023/01/15 13:07:33;;;;;;;2.30;1.25;;;8.00;92.70;;;;;;5086690;28;20044;-46
2023/01/15 13:10:17;;;;;;;1.48;0.80;;;7.90;94.20;;;;;;5075142;28;20036;-53
2023/01/15 13:12:42;;;;;;;6.68;1.75;;;8.00;94.50;;;;;;5068521;28;20031;-50
2023/01/15 13:15:18;;;;;;;4.18;0.90;;;7.90;94.80;;;;;;5093072;28;20500;-50
2023/01/15 13:17:56;;;;;;;;;;;8.00;93.90;;;;;;5068738;28;20040;-54
2023/01/15 13:20:35;;;;;;;2.85;1.00;;;8.00;92.60;;;;;;5094417;28;19919;-54
2023/01/15 13:23:46;;;;;;;9.48;5.10;;;8.00;93.80;;;;;;5074048;28;20407;-52
2023/01/15 13:26:40;;;;;;;5.63;3.55;;;7.90;94.00;;;;;;5068245;28;20552;-50
2023/01/15 13:29:24;;;;;;;5.75;5.15;;;7.90;95.10;;;;;;5076476;28;20036;-54
2023/01/15 13:32:00;;;;;;;6.22;3.85;;;7.90;94.80;;;;;;5101168;28;20012;-52
2023/01/15 13:34:45;;;;;;;1.98;1.75;;;7.90;93.60;;;;;;5079950;28;20044;-58
2023/01/15 13:37:34;;;;;;;2.40;1.30;;;7.90;93.40;;;;;;5094161;28;20052;-51
2023/01/15 13:40:23;;;;;;;2.08;1.83;;;7.80;92.90;;;;;;5074063;28;20078;-52
2023/01/15 13:42:51;;;;;;;2.97;1.10;;;7.60;93.30;;;;;;5075499;28;20036;-54
2023/01/15 13:45:26;;;;;;;1.40;1.00;;;7.50;93.50;;;;;;5082893;28;20059;-57
2023/01/15 13:48:05;;;;;;;4.45;1.58;;;7.50;93.70;;;;;;5070514;28;20032;-51
2023/01/15 13:50:35;;;;;;;1.75;1.00;;;7.40;94.50;;;;;;5074562;28;20056;-51
2023/01/15 13:53:12;;;;;;;4.32;1.80;;;7.40;94.30;;;;;;5071771;28;20047;-52
2023/01/15 13:55:41;;;;;;;4.25;1.17;;;7.30;93.40;;;;;;5077416;28;20060;-56
2023/01/15 13:58:19;;;;;;;10.65;5.65;;;7.40;93.00;;;;;;5071073;28;20687;-55
2023/01/15 14:00:45;;;;;;;30.83;14.80;;;7.40;92.60;;;;;;5083012;28;20382;-54
2023/01/15 14:03:28;;;;;;;164.70;76.82;;;7.30;92.90;;;;;;5094265;28;20069;-55
2023/01/15 14:06:06;;;;;;;75.03;38.75;;;7.30;93.30;;;;;;5072483;28;20066;-55
2023/01/15 14:08:44;;;;;;;39.42;21.10;;;7.20;92.90;;;;;;5088701;28;20020;-55
2023/01/15 14:11:33;;;;;;;44.25;23.75;;;7.10;92.40;;;;;;5088216;28;20042;-55
2023/01/15 14:14:28;;;;;;;20.02;11.88;;;7.10;94.10;;;;;;5075620;28;20028;-56